sensor_id;sensor_type;location;lat;lon;timestamp;P1;durP1;ratioP1;P2;durP2;ratioP2
12076;SDS011;12420;42.676;23.262;2023-08-21T00:01:58;6.00;;;5.50;;
12076;SDS011;12420;42.676;23.262;2023-08-21T00:04:24;6.83;;;6.10;;
12076;SDS011;12420;42.676;23.262;2023-08-21T00:06:56;7.17;;;5.70;;
12076;SDS011;12420;42.676;23.262;2023-08-21T00:09:22;7.83;;;5.60;;
12076;SDS011;12420;42.676;23.262;2023-08-21T00:11:49;7.33;;;5.50;;
12076;SDS011;12420;42.676;23.262;2023-08-21T00:14:18;6.57;;;5.67;;
12076;SDS011;12420;42.676;23.262;2023-08-21T00:16:45;6.30;;;5.70;;
12076;SDS011;12420;42.676;23.262;2023-08-21T00:19:12;7.95;;;5.30;;
12076;SDS011;12420;42.676;23.262;2023-08-21T00:21:39;6.80;;;5.35;;
12076;SDS011;12420;42.676;23.262;2023-08-21T00:24:06;6.33;;;5.07;;
12076;SDS011;12420;42.676;23.262;2023-08-21T00:26:34;6.70;;;5.33;;
12076;SDS011;12420;42.676;23.262;2023-08-21T00:29:02;6.27;;;5.60;;
12076;SDS011;12420;42.676;23.262;2023-08-21T00:31:32;6.57;;;5.77;;
12076;SDS011;12420;42.676;23.262;2023-08-21T00:33:58;6.57;;;5.72;;
12076;SDS011;12420;42.676;23.262;2023-08-21T00:36:25;6.30;;;5.68;;
12076;SDS011;12420;42.676;23.262;2023-08-21T00:38:52;6.00;;;5.40;;
12076;SDS011;12420;42.676;23.262;2023-08-21T00:41:26;6.13;;;5.60;;
12076;SDS011;12420;42.676;23.262;2023-08-21T00:43:53;5.80;;;5.30;;
12076;SDS011;12420;42.676;23.262;2023-08-21T00:46:20;6.23;;;5.63;;
12076;SDS011;12420;42.676;23.262;2023-08-21T00:48:48;6.13;;;5.53;;
12076;SDS011;12420;42.676;23.262;2023-08-21T00:51:15;6.23;;;5.63;;
12076;SDS011;12420;42.676;23.262;2023-08-21T00:53:43;7.37;;;5.53;;
12076;SDS011;12420;42.676;23.262;2023-08-21T00:56:11;6.03;;;5.30;;
12076;SDS011;12420;42.676;23.262;2023-08-21T00:58:40;8.13;;;5.57;;
12076;SDS011;12420;42.676;23.262;2023-08-21T01:01:08;6.40;;;5.80;;
12076;SDS011;12420;42.676;23.262;2023-08-21T01:03:35;8.17;;;5.37;;
12076;SDS011;12420;42.676;23.262;2023-08-21T01:06:04;6.27;;;5.60;;
12076;SDS011;12420;42.676;23.262;2023-08-21T01:08:34;6.63;;;5.80;;
12076;SDS011;12420;42.676;23.262;2023-08-21T01:11:08;5.80;;;5.35;;
12076;SDS011;12420;42.676;23.262;2023-08-21T01:13:44;6.83;;;5.73;;
12076;SDS011;12420;42.676;23.262;2023-08-21T01:16:17;8.90;;;5.67;;
12076;SDS011;12420;42.676;23.262;2023-08-21T01:18:46;6.00;;;5.40;;
12076;SDS011;12420;42.676;23.262;2023-08-21T01:21:16;6.17;;;5.67;;
12076;SDS011;12420;42.676;23.262;2023-08-21T01:23:45;6.17;;;5.70;;
12076;SDS011;12420;42.676;23.262;2023-08-21T01:26:12;5.90;;;5.43;;
12076;SDS011;12420;42.676;23.262;2023-08-21T01:28:39;6.67;;;6.03;;
12076;SDS011;12420;42.676;23.262;2023-08-21T01:31:07;6.67;;;6.07;;
12076;SDS011;12420;42.676;23.262;2023-08-21T01:33:40;7.43;;;5.73;;
12076;SDS011;12420;42.676;23.262;2023-08-21T01:36:12;5.90;;;5.30;;
12076;SDS011;12420;42.676;23.262;2023-08-21T01:38:40;6.03;;;5.50;;
12076;SDS011;12420;42.676;23.262;2023-08-21T01:41:11;6.90;;;5.57;;
12076;SDS011;12420;42.676;23.262;2023-08-21T01:43:37;10.07;;;5.97;;
12076;SDS011;12420;42.676;23.262;2023-08-21T01:46:05;6.23;;;5.63;;
12076;SDS011;12420;42.676;23.262;2023-08-21T01:48:34;6.13;;;5.63;;
12076;SDS011;12420;42.676;23.262;2023-08-21T01:51:01;7.47;;;6.00;;
12076;SDS011;12420;42.676;23.262;2023-08-21T01:53:28;6.93;;;5.93;;
12076;SDS011;12420;42.676;23.262;2023-08-21T01:55:55;8.10;;;5.77;;
12076;SDS011;12420;42.676;23.262;2023-08-21T01:58:23;6.20;;;5.43;;
12076;SDS011;12420;42.676;23.262;2023-08-21T02:00:50;6.80;;;6.00;;
12076;SDS011;12420;42.676;23.262;2023-08-21T02:03:17;6.72;;;5.80;;
12076;SDS011;12420;42.676;23.262;2023-08-21T02:05:47;6.47;;;5.97;;
12076;SDS011;12420;42.676;23.262;2023-08-21T02:08:13;6.63;;;6.13;;
12076;SDS011;12420;42.676;23.262;2023-08-21T02:10:50;6.73;;;5.67;;
12076;SDS011;12420;42.676;23.262;2023-08-21T02:13:18;8.30;;;6.60;;
12076;SDS011;12420;42.676;23.262;2023-08-21T02:15:46;7.83;;;6.60;;
12076;SDS011;12420;42.676;23.262;2023-08-21T02:18:13;9.00;;;6.47;;
12076;SDS011;12420;42.676;23.262;2023-08-21T02:20:42;7.17;;;6.47;;
12076;SDS011;12420;42.676;23.262;2023-08-21T02:23:10;7.47;;;6.77;;
12076;SDS011;12420;42.676;23.262;2023-08-21T02:25:40;8.40;;;6.40;;
12076;SDS011;12420;42.676;23.262;2023-08-21T02:28:07;14.97;;;6.43;;
12076;SDS011;12420;42.676;23.262;2023-08-21T02:30:34;8.13;;;6.80;;
12076;SDS011;12420;42.676;23.262;2023-08-21T02:33:03;8.40;;;6.63;;
12076;SDS011;12420;42.676;23.262;2023-08-21T02:35:30;9.10;;;6.80;;
12076;SDS011;12420;42.676;23.262;2023-08-21T02:37:57;7.27;;;6.33;;
12076;SDS011;12420;42.676;23.262;2023-08-21T02:40:24;11.27;;;6.73;;
12076;SDS011;12420;42.676;23.262;2023-08-21T02:42:51;53.03;;;8.63;;
12076;SDS011;12420;42.676;23.262;2023-08-21T02:45:18;24.20;;;7.00;;
12076;SDS011;12420;42.676;23.262;2023-08-21T02:47:44;15.80;;;6.43;;
12076;SDS011;12420;42.676;23.262;2023-08-21T02:50:13;6.37;;;5.77;;
12076;SDS011;12420;42.676;23.262;2023-08-21T02:52:40;12.33;;;6.20;;
12076;SDS011;12420;42.676;23.262;2023-08-21T02:55:07;6.40;;;5.63;;
12076;SDS011;12420;42.676;23.262;2023-08-21T02:57:35;6.60;;;5.67;;
12076;SDS011;12420;42.676;23.262;2023-08-21T03:00:02;9.10;;;5.90;;
12076;SDS011;12420;42.676;23.262;2023-08-21T03:02:29;10.03;;;6.50;;
12076;SDS011;12420;42.676;23.262;2023-08-21T03:04:57;6.30;;;5.70;;
12076;SDS011;12420;42.676;23.262;2023-08-21T03:07:25;6.17;;;5.67;;
12076;SDS011;12420;42.676;23.262;2023-08-21T03:09:52;7.70;;;5.97;;
12076;SDS011;12420;42.676;23.262;2023-08-21T03:12:20;8.17;;;5.90;;
12076;SDS011;12420;42.676;23.262;2023-08-21T03:14:47;8.17;;;6.23;;
12076;SDS011;12420;42.676;23.262;2023-08-21T03:17:14;10.50;;;6.47;;
12076;SDS011;12420;42.676;23.262;2023-08-21T03:19:41;12.17;;;6.47;;
12076;SDS011;12420;42.676;23.262;2023-08-21T03:22:09;8.27;;;6.30;;
12076;SDS011;12420;42.676;23.262;2023-08-21T03:24:37;6.87;;;6.27;;
12076;SDS011;12420;42.676;23.262;2023-08-21T03:27:05;8.40;;;6.30;;
12076;SDS011;12420;42.676;23.262;2023-08-21T03:29:32;6.90;;;6.20;;
12076;SDS011;12420;42.676;23.262;2023-08-21T03:32:00;10.67;;;6.30;;
12076;SDS011;12420;42.676;23.262;2023-08-21T03:34:26;7.50;;;6.50;;
12076;SDS011;12420;42.676;23.262;2023-08-21T03:36:53;7.07;;;6.47;;
12076;SDS011;12420;42.676;23.262;2023-08-21T03:39:21;7.23;;;6.63;;
12076;SDS011;12420;42.676;23.262;2023-08-21T03:41:50;7.23;;;6.40;;
12076;SDS011;12420;42.676;23.262;2023-08-21T03:44:17;6.77;;;6.20;;
12076;SDS011;12420;42.676;23.262;2023-08-21T03:46:46;7.03;;;6.43;;
12076;SDS011;12420;42.676;23.262;2023-08-21T03:49:13;7.43;;;6.60;;
12076;SDS011;12420;42.676;23.262;2023-08-21T03:51:40;7.10;;;6.03;;
12076;SDS011;12420;42.676;23.262;2023-08-21T03:54:07;7.37;;;6.70;;
12076;SDS011;12420;42.676;23.262;2023-08-21T03:56:33;9.33;;;6.50;;
12076;SDS011;12420;42.676;23.262;2023-08-21T03:59:02;11.63;;;7.00;;
12076;SDS011;12420;42.676;23.262;2023-08-21T04:01:30;7.70;;;6.70;;
12076;SDS011;12420;42.676;23.262;2023-08-21T04:03:57;8.93;;;7.27;;
12076;SDS011;12420;42.676;23.262;2023-08-21T04:06:24;9.70;;;6.77;;
12076;SDS011;12420;42.676;23.262;2023-08-21T04:08:50;9.30;;;6.70;;
12076;SDS011;12420;42.676;23.262;2023-08-21T04:11:17;11.77;;;6.80;;
12076;SDS011;12420;42.676;23.262;2023-08-21T04:13:44;8.97;;;6.77;;
12076;SDS011;12420;42.676;23.262;2023-08-21T04:16:12;8.20;;;7.13;;
12076;SDS011;12420;42.676;23.262;2023-08-21T04:18:39;7.73;;;6.60;;
12076;SDS011;12420;42.676;23.262;2023-08-21T04:21:06;7.63;;;6.90;;
12076;SDS011;12420;42.676;23.262;2023-08-21T04:23:34;13.20;;;9.80;;
12076;SDS011;12420;42.676;23.262;2023-08-21T04:26:01;10.67;;;6.60;;
12076;SDS011;12420;42.676;23.262;2023-08-21T04:28:31;37.77;;;8.07;;
12076;SDS011;12420;42.676;23.262;2023-08-21T04:30:59;12.30;;;7.83;;
12076;SDS011;12420;42.676;23.262;2023-08-21T04:33:29;21.47;;;7.90;;
12076;SDS011;12420;42.676;23.262;2023-08-21T04:35:55;21.70;;;7.33;;
12076;SDS011;12420;42.676;23.262;2023-08-21T04:38:23;27.10;;;8.07;;
12076;SDS011;12420;42.676;23.262;2023-08-21T04:40:50;15.57;;;7.43;;
12076;SDS011;12420;42.676;23.262;2023-08-21T04:43:17;13.57;;;7.93;;
12076;SDS011;12420;42.676;23.262;2023-08-21T04:45:47;15.93;;;7.57;;
12076;SDS011;12420;42.676;23.262;2023-08-21T04:48:15;17.80;;;8.10;;
12076;SDS011;12420;42.676;23.262;2023-08-21T04:50:44;12.83;;;8.30;;
12076;SDS011;12420;42.676;23.262;2023-08-21T04:53:13;19.73;;;8.63;;
12076;SDS011;12420;42.676;23.262;2023-08-21T04:55:43;32.28;;;8.75;;
12076;SDS011;12420;42.676;23.262;2023-08-21T04:58:10;24.80;;;8.60;;
12076;SDS011;12420;42.676;23.262;2023-08-21T05:00:37;19.07;;;9.67;;
12076;SDS011;12420;42.676;23.262;2023-08-21T05:03:05;15.55;;;9.05;;
12076;SDS011;12420;42.676;23.262;2023-08-21T05:05:34;29.63;;;9.97;;
12076;SDS011;12420;42.676;23.262;2023-08-21T05:08:03;17.88;;;8.27;;
12076;SDS011;12420;42.676;23.262;2023-08-21T05:10:30;16.60;;;8.83;;
12076;SDS011;12420;42.676;23.262;2023-08-21T05:12:57;13.57;;;9.68;;
12076;SDS011;12420;42.676;23.262;2023-08-21T05:15:24;14.77;;;9.38;;
12076;SDS011;12420;42.676;23.262;2023-08-21T05:17:51;13.53;;;9.47;;
12076;SDS011;12420;42.676;23.262;2023-08-21T05:20:18;15.53;;;9.57;;
12076;SDS011;12420;42.676;23.262;2023-08-21T05:22:46;21.40;;;10.40;;
12076;SDS011;12420;42.676;23.262;2023-08-21T05:25:14;20.77;;;11.13;;
12076;SDS011;12420;42.676;23.262;2023-08-21T05:27:41;18.33;;;9.70;;
12076;SDS011;12420;42.676;23.262;2023-08-21T05:30:08;15.30;;;9.98;;
12076;SDS011;12420;42.676;23.262;2023-08-21T05:32:37;15.43;;;9.80;;
12076;SDS011;12420;42.676;23.262;2023-08-21T05:35:04;16.50;;;9.20;;
12076;SDS011;12420;42.676;23.262;2023-08-21T05:37:34;16.60;;;9.10;;
12076;SDS011;12420;42.676;23.262;2023-08-21T05:40:02;13.70;;;9.40;;
12076;SDS011;12420;42.676;23.262;2023-08-21T05:42:32;17.15;;;8.85;;
12076;SDS011;12420;42.676;23.262;2023-08-21T05:44:59;13.65;;;8.30;;
12076;SDS011;12420;42.676;23.262;2023-08-21T05:47:26;12.50;;;8.68;;
12076;SDS011;12420;42.676;23.262;2023-08-21T05:49:52;13.40;;;8.52;;
12076;SDS011;12420;42.676;23.262;2023-08-21T05:52:20;17.33;;;8.63;;
12076;SDS011;12420;42.676;23.262;2023-08-21T05:54:48;14.52;;;8.85;;
12076;SDS011;12420;42.676;23.262;2023-08-21T05:57:15;16.10;;;8.57;;
12076;SDS011;12420;42.676;23.262;2023-08-21T05:59:45;17.25;;;8.52;;
12076;SDS011;12420;42.676;23.262;2023-08-21T06:02:15;26.00;;;8.98;;
12076;SDS011;12420;42.676;23.262;2023-08-21T06:04:45;16.40;;;9.30;;
12076;SDS011;12420;42.676;23.262;2023-08-21T06:07:12;22.70;;;8.73;;
12076;SDS011;12420;42.676;23.262;2023-08-21T06:09:38;15.98;;;8.70;;
12076;SDS011;12420;42.676;23.262;2023-08-21T06:12:06;14.18;;;8.05;;
12076;SDS011;12420;42.676;23.262;2023-08-21T06:14:34;18.88;;;8.68;;
12076;SDS011;12420;42.676;23.262;2023-08-21T06:17:03;12.90;;;8.15;;
12076;SDS011;12420;42.676;23.262;2023-08-21T06:19:32;15.85;;;8.25;;
12076;SDS011;12420;42.676;23.262;2023-08-21T06:21:58;18.05;;;8.35;;
12076;SDS011;12420;42.676;23.262;2023-08-21T06:24:26;12.82;;;8.07;;
12076;SDS011;12420;42.676;23.262;2023-08-21T06:26:53;19.52;;;8.38;;
12076;SDS011;12420;42.676;23.262;2023-08-21T06:29:20;13.65;;;7.85;;
12076;SDS011;12420;42.676;23.262;2023-08-21T06:31:47;16.55;;;7.70;;
12076;SDS011;12420;42.676;23.262;2023-08-21T06:34:15;13.18;;;6.80;;
12076;SDS011;12420;42.676;23.262;2023-08-21T06:36:42;13.35;;;7.00;;
12076;SDS011;12420;42.676;23.262;2023-08-21T06:39:09;11.35;;;6.25;;
12076;SDS011;12420;42.676;23.262;2023-08-21T06:41:36;11.30;;;6.82;;
12076;SDS011;12420;42.676;23.262;2023-08-21T06:44:03;14.60;;;6.53;;
12076;SDS011;12420;42.676;23.262;2023-08-21T06:46:30;8.02;;;6.10;;
12076;SDS011;12420;42.676;23.262;2023-08-21T06:48:57;11.75;;;6.30;;
12076;SDS011;12420;42.676;23.262;2023-08-21T06:51:25;11.02;;;6.18;;
12076;SDS011;12420;42.676;23.262;2023-08-21T06:53:53;10.57;;;6.50;;
12076;SDS011;12420;42.676;23.262;2023-08-21T06:56:21;7.60;;;5.97;;
12076;SDS011;12420;42.676;23.262;2023-08-21T06:58:48;14.10;;;5.65;;
12076;SDS011;12420;42.676;23.262;2023-08-21T07:01:15;10.63;;;5.65;;
12076;SDS011;12420;42.676;23.262;2023-08-21T07:03:42;10.60;;;5.80;;
12076;SDS011;12420;42.676;23.262;2023-08-21T07:06:09;10.80;;;5.82;;
12076;SDS011;12420;42.676;23.262;2023-08-21T07:08:37;7.20;;;4.88;;
12076;SDS011;12420;42.676;23.262;2023-08-21T07:11:05;8.43;;;5.10;;
12076;SDS011;12420;42.676;23.262;2023-08-21T07:13:35;5.63;;;5.00;;
12076;SDS011;12420;42.676;23.262;2023-08-21T07:16:02;6.78;;;5.13;;
12076;SDS011;12420;42.676;23.262;2023-08-21T07:18:31;11.35;;;5.32;;
12076;SDS011;12420;42.676;23.262;2023-08-21T07:20:58;9.43;;;5.13;;
12076;SDS011;12420;42.676;23.262;2023-08-21T07:23:25;9.80;;;5.13;;
12076;SDS011;12420;42.676;23.262;2023-08-21T07:25:54;6.70;;;5.40;;
12076;SDS011;12420;42.676;23.262;2023-08-21T07:28:21;9.38;;;4.80;;
12076;SDS011;12420;42.676;23.262;2023-08-21T07:30:48;5.05;;;4.57;;
12076;SDS011;12420;42.676;23.262;2023-08-21T07:33:20;7.10;;;4.88;;
12076;SDS011;12420;42.676;23.262;2023-08-21T07:35:47;10.13;;;4.50;;
12076;SDS011;12420;42.676;23.262;2023-08-21T07:38:16;7.65;;;5.20;;
12076;SDS011;12420;42.676;23.262;2023-08-21T07:40:43;5.28;;;4.75;;
12076;SDS011;12420;42.676;23.262;2023-08-21T07:43:12;6.20;;;5.47;;
12076;SDS011;12420;42.676;23.262;2023-08-21T07:45:38;6.95;;;5.03;;
12076;SDS011;12420;42.676;23.262;2023-08-21T07:48:06;6.35;;;4.88;;
12076;SDS011;12420;42.676;23.262;2023-08-21T07:50:32;6.90;;;5.10;;
12076;SDS011;12420;42.676;23.262;2023-08-21T07:52:59;6.35;;;5.32;;
12076;SDS011;12420;42.676;23.262;2023-08-21T07:55:26;5.85;;;5.30;;
12076;SDS011;12420;42.676;23.262;2023-08-21T07:57:53;7.93;;;5.05;;
12076;SDS011;12420;42.676;23.262;2023-08-21T08:00:22;8.30;;;5.30;;
12076;SDS011;12420;42.676;23.262;2023-08-21T08:02:49;8.45;;;5.15;;
12076;SDS011;12420;42.676;23.262;2023-08-21T08:05:16;6.45;;;5.85;;
12076;SDS011;12420;42.676;23.262;2023-08-21T08:07:43;8.80;;;5.43;;
12076;SDS011;12420;42.676;23.262;2023-08-21T08:10:10;5.97;;;5.38;;
12076;SDS011;12420;42.676;23.262;2023-08-21T08:12:37;7.80;;;6.28;;
12076;SDS011;12420;42.676;23.262;2023-08-21T08:15:09;11.65;;;5.80;;
12076;SDS011;12420;42.676;23.262;2023-08-21T08:17:38;9.65;;;7.10;;
12076;SDS011;12420;42.676;23.262;2023-08-21T08:20:05;7.68;;;6.50;;
12076;SDS011;12420;42.676;23.262;2023-08-21T08:22:32;10.70;;;6.57;;
12076;SDS011;12420;42.676;23.262;2023-08-21T08:24:59;11.40;;;6.20;;
12076;SDS011;12420;42.676;23.262;2023-08-21T08:27:26;8.85;;;6.60;;
12076;SDS011;12420;42.676;23.262;2023-08-21T08:29:53;8.65;;;6.03;;
12076;SDS011;12420;42.676;23.262;2023-08-21T08:32:20;6.63;;;6.00;;
12076;SDS011;12420;42.676;23.262;2023-08-21T08:34:48;7.07;;;5.93;;
12076;SDS011;12420;42.676;23.262;2023-08-21T08:37:15;13.45;;;6.10;;
12076;SDS011;12420;42.676;23.262;2023-08-21T08:39:42;8.73;;;6.43;;
12076;SDS011;12420;42.676;23.262;2023-08-21T08:42:09;5.72;;;5.22;;
12076;SDS011;12420;42.676;23.262;2023-08-21T08:44:36;5.63;;;5.22;;
12076;SDS011;12420;42.676;23.262;2023-08-21T08:47:04;8.80;;;4.70;;
12076;SDS011;12420;42.676;23.262;2023-08-21T08:49:31;6.07;;;5.25;;
12076;SDS011;12420;42.676;23.262;2023-08-21T08:52:00;9.63;;;5.55;;
12076;SDS011;12420;42.676;23.262;2023-08-21T08:54:27;14.43;;;5.25;;
12076;SDS011;12420;42.676;23.262;2023-08-21T08:56:55;5.13;;;4.63;;
12076;SDS011;12420;42.676;23.262;2023-08-21T08:59:23;7.88;;;5.40;;
12076;SDS011;12420;42.676;23.262;2023-08-21T09:01:50;5.65;;;4.78;;
12076;SDS011;12420;42.676;23.262;2023-08-21T09:04:17;5.65;;;5.22;;
12076;SDS011;12420;42.676;23.262;2023-08-21T09:06:44;6.40;;;5.05;;
12076;SDS011;12420;42.676;23.262;2023-08-21T09:09:13;9.23;;;5.68;;
12076;SDS011;12420;42.676;23.262;2023-08-21T09:11:42;7.97;;;5.43;;
12076;SDS011;12420;42.676;23.262;2023-08-21T09:14:10;6.53;;;5.43;;
12076;SDS011;12420;42.676;23.262;2023-08-21T09:16:37;7.20;;;5.22;;
12076;SDS011;12420;42.676;23.262;2023-08-21T09:19:04;7.25;;;5.00;;
12076;SDS011;12420;42.676;23.262;2023-08-21T09:21:30;12.63;;;5.22;;
12076;SDS011;12420;42.676;23.262;2023-08-21T09:23:58;7.80;;;5.47;;
12076;SDS011;12420;42.676;23.262;2023-08-21T09:26:29;8.20;;;5.43;;
12076;SDS011;12420;42.676;23.262;2023-08-21T09:28:57;9.50;;;5.53;;
12076;SDS011;12420;42.676;23.262;2023-08-21T09:31:29;5.63;;;5.15;;
12076;SDS011;12420;42.676;23.262;2023-08-21T09:33:57;14.75;;;5.43;;
12076;SDS011;12420;42.676;23.262;2023-08-21T09:36:25;10.38;;;5.03;;
12076;SDS011;12420;42.676;23.262;2023-08-21T09:38:52;7.57;;;4.95;;
12076;SDS011;12420;42.676;23.262;2023-08-21T09:41:20;5.20;;;4.88;;
12076;SDS011;12420;42.676;23.262;2023-08-21T09:43:49;7.43;;;4.90;;
12076;SDS011;12420;42.676;23.262;2023-08-21T09:46:16;7.95;;;5.20;;
12076;SDS011;12420;42.676;23.262;2023-08-21T09:48:50;6.60;;;5.38;;
12076;SDS011;12420;42.676;23.262;2023-08-21T09:51:18;7.38;;;5.07;;
12076;SDS011;12420;42.676;23.262;2023-08-21T09:53:45;9.20;;;5.60;;
12076;SDS011;12420;42.676;23.262;2023-08-21T09:56:14;6.05;;;5.43;;
12076;SDS011;12420;42.676;23.262;2023-08-21T09:58:41;7.00;;;5.10;;
12076;SDS011;12420;42.676;23.262;2023-08-21T10:01:10;9.77;;;5.70;;
12076;SDS011;12420;42.676;23.262;2023-08-21T10:03:39;6.28;;;4.65;;
12076;SDS011;12420;42.676;23.262;2023-08-21T10:06:08;5.55;;;4.95;;
12076;SDS011;12420;42.676;23.262;2023-08-21T10:08:36;5.97;;;4.68;;
12076;SDS011;12420;42.676;23.262;2023-08-21T10:11:06;8.40;;;4.80;;
12076;SDS011;12420;42.676;23.262;2023-08-21T10:13:33;6.97;;;4.60;;
12076;SDS011;12420;42.676;23.262;2023-08-21T10:16:03;7.93;;;5.47;;
12076;SDS011;12420;42.676;23.262;2023-08-21T10:18:33;17.73;;;5.30;;
12076;SDS011;12420;42.676;23.262;2023-08-21T10:21:11;7.57;;;4.90;;
12076;SDS011;12420;42.676;23.262;2023-08-21T10:23:39;11.20;;;4.97;;
12076;SDS011;12420;42.676;23.262;2023-08-21T10:26:07;12.23;;;5.05;;
12076;SDS011;12420;42.676;23.262;2023-08-21T10:28:49;8.65;;;4.82;;
12076;SDS011;12420;42.676;23.262;2023-08-21T10:31:33;6.43;;;4.60;;
12076;SDS011;12420;42.676;23.262;2023-08-21T10:34:03;5.90;;;5.22;;
12076;SDS011;12420;42.676;23.262;2023-08-21T10:39:35;9.48;;;5.40;;
12076;SDS011;12420;42.676;23.262;2023-08-21T10:42:05;6.93;;;4.35;;
12076;SDS011;12420;42.676;23.262;2023-08-21T10:44:36;9.55;;;5.75;;
12076;SDS011;12420;42.676;23.262;2023-08-21T10:47:14;10.30;;;4.80;;
12076;SDS011;12420;42.676;23.262;2023-08-21T10:49:44;10.93;;;4.88;;
12076;SDS011;12420;42.676;23.262;2023-08-21T10:52:12;7.35;;;4.88;;
12076;SDS011;12420;42.676;23.262;2023-08-21T10:54:43;8.07;;;5.30;;
12076;SDS011;12420;42.676;23.262;2023-08-21T10:57:15;8.15;;;5.40;;
12076;SDS011;12420;42.676;23.262;2023-08-21T10:59:53;6.32;;;4.68;;
12076;SDS011;12420;42.676;23.262;2023-08-21T11:02:21;8.85;;;4.60;;
12076;SDS011;12420;42.676;23.262;2023-08-21T11:04:51;5.88;;;4.78;;
12076;SDS011;12420;42.676;23.262;2023-08-21T11:07:20;7.35;;;5.68;;
12076;SDS011;12420;42.676;23.262;2023-08-21T11:09:50;8.32;;;4.75;;
12076;SDS011;12420;42.676;23.262;2023-08-21T11:12:20;6.18;;;4.75;;
12076;SDS011;12420;42.676;23.262;2023-08-21T11:14:48;5.07;;;4.60;;
12076;SDS011;12420;42.676;23.262;2023-08-21T11:17:16;5.95;;;4.28;;
12076;SDS011;12420;42.676;23.262;2023-08-21T11:19:43;12.30;;;4.85;;
12076;SDS011;12420;42.676;23.262;2023-08-21T11:22:12;14.65;;;7.05;;
12076;SDS011;12420;42.676;23.262;2023-08-21T11:24:41;6.18;;;5.50;;
12076;SDS011;12420;42.676;23.262;2023-08-21T11:27:09;6.85;;;4.63;;
12076;SDS011;12420;42.676;23.262;2023-08-21T11:29:38;12.38;;;6.68;;
12076;SDS011;12420;42.676;23.262;2023-08-21T11:32:10;6.15;;;4.38;;
12076;SDS011;12420;42.676;23.262;2023-08-21T11:34:40;6.15;;;4.50;;
12076;SDS011;12420;42.676;23.262;2023-08-21T11:37:07;4.95;;;4.53;;
12076;SDS011;12420;42.676;23.262;2023-08-21T11:39:52;11.23;;;4.80;;
12076;SDS011;12420;42.676;23.262;2023-08-21T11:42:21;10.32;;;4.63;;
12076;SDS011;12420;42.676;23.262;2023-08-21T11:44:49;9.23;;;4.65;;
12076;SDS011;12420;42.676;23.262;2023-08-21T11:47:18;5.80;;;4.55;;
12076;SDS011;12420;42.676;23.262;2023-08-21T11:49:46;10.63;;;4.40;;
12076;SDS011;12420;42.676;23.262;2023-08-21T11:52:17;5.65;;;4.43;;
12076;SDS011;12420;42.676;23.262;2023-08-21T11:54:47;5.10;;;4.70;;
12076;SDS011;12420;42.676;23.262;2023-08-21T11:57:15;5.07;;;4.60;;
12076;SDS011;12420;42.676;23.262;2023-08-21T11:59:42;6.53;;;4.40;;
12076;SDS011;12420;42.676;23.262;2023-08-21T12:02:13;10.10;;;8.05;;
12076;SDS011;12420;42.676;23.262;2023-08-21T12:04:41;7.03;;;6.13;;
12076;SDS011;12420;42.676;23.262;2023-08-21T12:07:08;4.90;;;4.20;;
12076;SDS011;12420;42.676;23.262;2023-08-21T12:09:35;7.47;;;5.70;;
12076;SDS011;12420;42.676;23.262;2023-08-21T12:12:04;6.40;;;5.80;;
12076;SDS011;12420;42.676;23.262;2023-08-21T12:14:33;6.60;;;6.00;;
12076;SDS011;12420;42.676;23.262;2023-08-21T12:17:05;4.82;;;4.40;;
12076;SDS011;12420;42.676;23.262;2023-08-21T12:19:33;8.63;;;4.60;;
12076;SDS011;12420;42.676;23.262;2023-08-21T12:22:00;6.55;;;5.82;;
12076;SDS011;12420;42.676;23.262;2023-08-21T12:24:27;9.52;;;4.82;;
12076;SDS011;12420;42.676;23.262;2023-08-21T12:26:54;7.47;;;4.97;;
12076;SDS011;12420;42.676;23.262;2023-08-21T12:29:22;6.55;;;4.50;;
12076;SDS011;12420;42.676;23.262;2023-08-21T12:31:49;7.28;;;5.32;;
12076;SDS011;12420;42.676;23.262;2023-08-21T12:34:16;17.10;;;5.88;;
12076;SDS011;12420;42.676;23.262;2023-08-21T12:36:43;5.75;;;4.72;;
12076;SDS011;12420;42.676;23.262;2023-08-21T12:39:09;7.97;;;4.32;;
12076;SDS011;12420;42.676;23.262;2023-08-21T12:41:39;6.15;;;4.50;;
12076;SDS011;12420;42.676;23.262;2023-08-21T12:44:05;7.75;;;4.63;;
12076;SDS011;12420;42.676;23.262;2023-08-21T12:46:35;5.30;;;4.40;;
12076;SDS011;12420;42.676;23.262;2023-08-21T12:49:02;6.00;;;4.68;;
12076;SDS011;12420;42.676;23.262;2023-08-21T12:51:29;4.68;;;4.30;;
12076;SDS011;12420;42.676;23.262;2023-08-21T12:53:56;6.80;;;4.78;;
12076;SDS011;12420;42.676;23.262;2023-08-21T12:56:23;5.40;;;4.50;;
12076;SDS011;12420;42.676;23.262;2023-08-21T12:58:50;4.53;;;4.13;;
12076;SDS011;12420;42.676;23.262;2023-08-21T13:01:17;8.20;;;4.93;;
12076;SDS011;12420;42.676;23.262;2023-08-21T13:03:46;12.60;;;5.72;;
12076;SDS011;12420;42.676;23.262;2023-08-21T13:06:13;5.38;;;4.53;;
12076;SDS011;12420;42.676;23.262;2023-08-21T13:08:42;4.50;;;4.10;;
12076;SDS011;12420;42.676;23.262;2023-08-21T13:11:09;5.63;;;5.03;;
12076;SDS011;12420;42.676;23.262;2023-08-21T13:13:36;10.75;;;4.97;;
12076;SDS011;12420;42.676;23.262;2023-08-21T13:16:03;12.80;;;4.72;;
12076;SDS011;12420;42.676;23.262;2023-08-21T13:18:30;6.13;;;4.30;;
12076;SDS011;12420;42.676;23.262;2023-08-21T13:20:58;9.00;;;4.78;;
12076;SDS011;12420;42.676;23.262;2023-08-21T13:23:25;5.00;;;4.40;;
12076;SDS011;12420;42.676;23.262;2023-08-21T13:25:52;5.47;;;4.85;;
12076;SDS011;12420;42.676;23.262;2023-08-21T13:28:20;5.68;;;4.22;;
12076;SDS011;12420;42.676;23.262;2023-08-21T13:30:48;5.60;;;4.53;;
12076;SDS011;12420;42.676;23.262;2023-08-21T13:33:15;5.20;;;4.22;;
12076;SDS011;12420;42.676;23.262;2023-08-21T13:35:43;13.57;;;5.18;;
12076;SDS011;12420;42.676;23.262;2023-08-21T13:38:12;5.20;;;4.50;;
12076;SDS011;12420;42.676;23.262;2023-08-21T13:40:39;7.45;;;5.00;;
12076;SDS011;12420;42.676;23.262;2023-08-21T13:43:07;9.82;;;4.70;;
12076;SDS011;12420;42.676;23.262;2023-08-21T13:45:36;8.23;;;4.45;;
12076;SDS011;12420;42.676;23.262;2023-08-21T13:48:05;9.63;;;4.70;;
12076;SDS011;12420;42.676;23.262;2023-08-21T13:50:32;10.02;;;4.57;;
12076;SDS011;12420;42.676;23.262;2023-08-21T13:53:01;7.32;;;4.35;;
12076;SDS011;12420;42.676;23.262;2023-08-21T13:55:32;5.53;;;5.03;;
12076;SDS011;12420;42.676;23.262;2023-08-21T13:57:59;7.75;;;4.75;;
12076;SDS011;12420;42.676;23.262;2023-08-21T14:00:25;8.13;;;4.70;;
12076;SDS011;12420;42.676;23.262;2023-08-21T14:02:53;7.50;;;4.53;;
12076;SDS011;12420;42.676;23.262;2023-08-21T14:05:20;4.90;;;4.50;;
12076;SDS011;12420;42.676;23.262;2023-08-21T14:07:47;7.70;;;4.47;;
12076;SDS011;12420;42.676;23.262;2023-08-21T14:10:14;6.70;;;4.78;;
12076;SDS011;12420;42.676;23.262;2023-08-21T14:12:42;9.80;;;4.38;;
12076;SDS011;12420;42.676;23.262;2023-08-21T14:15:09;8.80;;;4.97;;
12076;SDS011;12420;42.676;23.262;2023-08-21T14:17:37;8.00;;;4.97;;
12076;SDS011;12420;42.676;23.262;2023-08-21T14:20:04;6.45;;;4.90;;
12076;SDS011;12420;42.676;23.262;2023-08-21T14:22:33;7.55;;;4.65;;
12076;SDS011;12420;42.676;23.262;2023-08-21T14:25:00;6.93;;;4.20;;
12076;SDS011;12420;42.676;23.262;2023-08-21T14:27:28;5.72;;;5.07;;
12076;SDS011;12420;42.676;23.262;2023-08-21T14:29:58;6.20;;;4.80;;
12076;SDS011;12420;42.676;23.262;2023-08-21T14:32:25;12.13;;;4.90;;
12076;SDS011;12420;42.676;23.262;2023-08-21T14:34:52;5.72;;;4.38;;
12076;SDS011;12420;42.676;23.262;2023-08-21T14:37:20;6.95;;;4.65;;
12076;SDS011;12420;42.676;23.262;2023-08-21T14:39:48;9.38;;;4.75;;